Timberlake, Virginia
Current Conditions -  °F | °C
As of 7:54 AM on Sunday 23 Nov 2014 (Local Time) from KLYH Reporting Station
Clear Clear  
Wind Chill: 32°   Ceiling: Unl
Heat Index: 32°   Visibility: 10mi
Dew Point: 23°   Wind: 3mph
Humidity: 69%   Direction: 190°S
Pressure: 30.21"   Gusts: NA
Location:  37.32°N, 79.26°W
Report Text: KLYH 231254Z 19003KT 10SM CLR 00/M05 A3021 RMK AO2 SLP238 T00001050 $
Loading
Personal Weather Stations






























Interactive Weather Map New forecast layout! Learn more

10-Day Weather Forecast

Advertisements
Track Severe Weather on mobile